Terminal Aerodrome Forecast
Issued by NWS

Home | Current Version | Previous Version | Text Only | Print | Product List | Glossary On
Versions: 1 2 3 4 5 6 7 8 9 10 11 12
000
FTUS44 KEPZ 242300
TAFLRU
TAF
KLRU 242320Z 2500/2524 22005KT P6SM SKC
     FM250200 28005KT P6SM SKC
     FM252000 23008KT P6SM FEW250=

USA.gov is the U.S. government's official web portal to all federal, state and local government web resources and services.